Time;durP1;ratioP1;P1;durP2;ratioP2;P2;SDS_P1;SDS_P2;PMS_P1;PMS_P2;Temp;Humidity;BMP_temperature;BMP_pressure;BME280_temperature;BME280_humidity;BME280_pressure;Samples;Min_cycle;Max_cycle;Signal;HPM_P1;HPM_P2
2022/05/27 00:00:54;;;;;;;2.90;2.20;;;8.70;99.90;;;;;;4196911;28;20819;-70
2022/05/27 00:02:55;;;;;;;2.63;2.27;;;8.60;99.90;;;;;;4196585;28;20462;-68
2022/05/27 00:04:55;;;;;;;3.67;2.23;;;8.70;99.90;;;;;;4196996;28;20185;-70
2022/05/27 00:06:56;;;;;;;4.50;2.30;;;8.50;99.90;;;;;;4196483;28;20181;-70
2022/05/27 00:08:57;;;;;;;2.67;2.20;;;8.50;99.90;;;;;;4196701;28;20179;-70
2022/05/27 00:10:59;;;;;;;3.17;2.40;;;8.50;99.90;;;;;;4196198;28;20187;-69
2022/05/27 00:13:00;;;;;;;2.50;2.27;;;8.50;99.90;;;;;;4196583;28;20207;-70
2022/05/27 00:15:01;;;;;;;3.40;2.50;;;8.50;99.90;;;;;;4196197;28;20434;-69
2022/05/27 00:17:02;;;;;;;2.67;2.40;;;8.50;99.90;;;;;;4195208;28;20652;-70
2022/05/27 00:19:03;;;;;;;4.17;2.20;;;8.50;99.90;;;;;;4196640;28;20422;-68
2022/05/27 00:21:04;;;;;;;2.67;1.90;;;8.50;99.90;;;;;;4196094;28;20231;-70
2022/05/27 00:23:06;;;;;;;4.03;2.20;;;8.50;99.90;;;;;;4196257;28;20204;-70
2022/05/27 00:25:07;;;;;;;3.43;2.13;;;8.50;99.90;;;;;;4196136;28;20420;-70
2022/05/27 00:27:08;;;;;;;2.53;2.20;;;8.50;99.90;;;;;;4196094;28;20502;-70
2022/05/27 00:29:08;;;;;;;3.90;2.20;;;8.50;99.90;;;;;;4196319;28;20598;-70
2022/05/27 00:31:09;;;;;;;3.67;2.20;;;8.50;99.90;;;;;;4196287;28;20510;-69
2022/05/27 00:33:10;;;;;;;2.43;2.23;;;8.60;99.90;;;;;;4195961;28;20226;-70
2022/05/27 00:35:11;;;;;;;2.40;2.20;;;8.60;99.90;;;;;;4195883;28;20219;-70
2022/05/27 00:37:12;;;;;;;2.13;1.93;;;8.60;99.90;;;;;;4195595;28;20189;-69
2022/05/27 00:39:12;;;;;;;3.00;2.13;;;8.50;99.90;;;;;;4196291;28;20184;-70
2022/05/27 00:41:13;;;;;;;2.80;2.50;;;8.50;99.90;;;;;;4196057;28;20200;-69
2022/05/27 00:43:14;;;;;;;2.60;2.07;;;8.50;99.90;;;;;;4195912;28;20192;-70
2022/05/27 00:45:23;;;;;;;3.03;2.30;;;8.50;99.90;;;;;;4195621;28;20231;-69
2022/05/27 00:47:28;;;;;;;2.77;2.23;;;8.40;99.90;;;;;;4196027;28;20164;-70
2022/05/27 00:49:29;;;;;;;2.40;1.93;;;8.50;99.90;;;;;;4195802;28;20436;-70
2022/05/27 00:51:34;;;;;;;3.37;2.00;;;8.50;99.90;;;;;;4196030;28;20425;-70
2022/05/27 00:53:41;;;;;;;3.23;2.03;;;8.40;99.90;;;;;;4195903;28;20631;-70
2022/05/27 00:55:47;;;;;;;2.43;2.10;;;8.40;99.90;;;;;;4195327;28;20826;-70
2022/05/27 00:57:56;;;;;;;3.43;2.20;;;8.50;99.90;;;;;;4195936;28;20452;-69
2022/05/27 01:00:01;;;;;;;4.60;2.13;;;8.40;99.90;;;;;;4196184;28;20557;-70
2022/05/27 01:02:02;;;;;;;2.57;2.33;;;8.40;99.90;;;;;;4196018;28;20410;-70
2022/05/27 01:04:04;;;;;;;3.73;2.17;;;8.40;99.90;;;;;;4196129;28;20500;-70
2022/05/27 01:06:05;;;;;;;4.07;2.13;;;8.40;99.90;;;;;;4195239;28;20171;-70
2022/05/27 01:08:08;;;;;;;2.30;2.10;;;8.40;99.90;;;;;;4195756;28;20554;-70
2022/05/27 01:10:14;;;;;;;2.23;1.80;;;8.30;99.90;;;;;;4195589;28;20282;-70
2022/05/27 01:12:40;;;;;;;2.23;1.93;;;8.30;99.90;;;;;;4195655;28;20438;-70
2022/05/27 01:15:09;;;;;;;2.50;2.30;;;8.40;99.90;;;;;;4195387;28;20414;-70
2022/05/27 01:17:20;;;;;;;2.20;2.00;;;8.50;99.90;;;;;;4192852;28;20820;-70
2022/05/27 01:22:20;;;;;;;3.47;2.50;;;8.50;99.90;;;;;;4193454;28;20465;-70
2022/05/27 01:24:48;;;;;;;2.40;1.90;;;8.50;99.90;;;;;;4195620;28;20415;-70
2022/05/27 01:27:10;;;;;;;2.10;1.90;;;8.40;99.90;;;;;;4194839;28;20414;-70
2022/05/27 01:29:43;;;;;;;2.10;1.90;;;8.50;99.90;;;;;;4195842;28;20449;-70
2022/05/27 01:31:48;;;;;;;3.03;2.07;;;8.50;99.90;;;;;;4195923;28;21057;-70
2022/05/27 01:34:07;;;;;;;2.97;2.00;;;8.30;99.90;;;;;;4195702;28;20417;-70
2022/05/27 01:36:27;;;;;;;2.10;1.90;;;8.10;99.90;;;;;;4195140;28;20410;-70
2022/05/27 01:38:39;;;;;;;2.30;2.10;;;8.10;99.90;;;;;;4195508;28;20402;-70
2022/05/27 01:40:53;;;;;;;3.13;1.90;;;8.00;99.90;;;;;;4195509;28;20497;-70
2022/05/27 01:42:56;;;;;;;2.70;1.90;;;8.00;99.90;;;;;;4195622;28;20970;-70
2022/05/27 01:45:03;;;;;;;1.90;1.70;;;8.00;99.90;;;;;;4195018;28;20794;-70
2022/05/27 01:47:07;;;;;;;3.10;2.00;;;8.00;99.90;;;;;;4194822;28;20768;-70
2022/05/27 01:49:17;;;;;;;1.90;1.80;;;8.00;99.90;;;;;;4195192;28;20509;-70
2022/05/27 01:51:42;;;;;;;2.10;1.90;;;7.90;99.90;;;;;;4195476;28;20422;-70
2022/05/27 01:54:04;;;;;;;2.57;2.00;;;7.90;99.90;;;;;;4195350;28;20441;-70
2022/05/27 01:56:42;;;;;;;2.93;2.10;;;7.80;99.90;;;;;;4194778;28;20419;-70
2022/05/27 01:59:06;;;;;;;2.40;2.20;;;7.70;99.90;;;;;;4195159;28;20406;-70
2022/05/27 02:01:11;;;;;;;2.60;2.10;;;7.80;99.90;;;;;;4195045;28;20449;-70
2022/05/27 02:03:20;;;;;;;2.00;1.80;;;7.80;99.90;;;;;;4194935;28;20441;-70
2022/05/27 02:05:33;;;;;;;2.80;2.23;;;7.80;99.90;;;;;;4194694;28;20425;-69
2022/05/27 02:07:36;;;;;;;2.40;2.20;;;7.80;99.90;;;;;;4195302;28;20410;-69
2022/05/27 02:09:41;;;;;;;2.60;2.40;;;7.70;99.90;;;;;;4195161;28;20406;-70
2022/05/27 02:11:43;;;;;;;2.87;2.20;;;7.80;99.90;;;;;;4195182;28;20414;-69
2022/05/27 02:13:47;;;;;;;2.20;2.00;;;7.60;99.90;;;;;;4194508;28;20532;-69
2022/05/27 02:15:51;;;;;;;3.03;2.10;;;7.60;99.90;;;;;;4194251;28;20412;-69
2022/05/27 02:18:04;;;;;;;2.60;2.40;;;7.70;99.90;;;;;;4194964;28;20916;-69
2022/05/27 02:20:08;;;;;;;4.10;2.80;;;7.70;99.90;;;;;;4194615;28;20457;-69
2022/05/27 02:22:16;;;;;;;5.83;2.90;;;7.60;99.90;;;;;;4194496;28;20964;-69
2022/05/27 02:24:24;;;;;;;4.07;2.93;;;7.60;99.90;;;;;;4195033;28;20422;-69
2022/05/27 02:26:30;;;;;;;3.17;2.80;;;7.60;99.90;;;;;;4194301;28;20421;-69
2022/05/27 02:28:36;;;;;;;3.97;2.87;;;7.70;99.90;;;;;;4194340;28;20444;-70
2022/05/27 02:30:42;;;;;;;6.57;3.93;;;7.70;99.90;;;;;;4194718;28;20409;-70
2022/05/27 02:32:48;;;;;;;7.03;4.27;;;7.70;99.90;;;;;;4194746;28;20488;-70
2022/05/27 02:35:07;;;;;;;8.50;4.97;;;7.60;99.90;;;;;;4188831;28;20433;-69
2022/05/27 02:37:30;;;;;;;5.70;4.47;;;7.60;99.90;;;;;;4193849;28;20425;-69
2022/05/27 02:39:31;;;;;;;5.33;3.90;;;7.50;99.90;;;;;;4196149;28;20463;-70
2022/05/27 02:41:47;;;;;;;5.03;3.33;;;7.40;99.90;;;;;;4197938;28;20478;-70
2022/05/27 02:43:58;;;;;;;4.37;3.93;;;7.40;99.90;;;;;;4197669;28;20486;-70
2022/05/27 02:46:25;;;;;;;6.43;4.50;;;7.40;99.90;;;;;;4197193;28;20413;-70
2022/05/27 02:48:50;;;;;;;8.53;5.30;;;7.40;99.90;;;;;;4197154;28;20430;-69
2022/05/27 02:51:23;;;;;;;5.30;4.77;;;7.40;99.90;;;;;;4197770;28;20888;-70
2022/05/27 02:53:31;;;;;;;6.17;4.47;;;7.50;99.90;;;;;;4197807;28;20502;-69
2022/05/27 02:55:40;;;;;;;4.87;4.03;;;7.40;99.90;;;;;;4197181;28;20417;-69
2022/05/27 02:57:45;;;;;;;6.50;4.07;;;7.40;99.90;;;;;;4197702;28;20441;-70
2022/05/27 02:59:46;;;;;;;4.17;3.33;;;7.30;99.90;;;;;;4195902;28;20522;-70
2022/05/27 03:01:47;;;;;;;4.10;3.10;;;7.30;99.90;;;;;;4197426;28;21016;-70
2022/05/27 03:03:47;;;;;;;4.27;3.20;;;7.30;99.90;;;;;;4198045;28;20207;-70
2022/05/27 03:05:53;;;;;;;4.67;3.63;;;7.20;99.90;;;;;;4196801;28;20635;-70
2022/05/27 03:08:05;;;;;;;4.47;3.00;;;7.30;99.90;;;;;;4197363;28;20179;-69
2022/05/27 03:10:19;;;;;;;3.63;2.90;;;7.30;99.90;;;;;;4197311;28;20406;-69
2022/05/27 03:12:41;;;;;;;2.63;2.40;;;7.30;99.90;;;;;;4197320;28;20853;-69
2022/05/27 03:14:44;;;;;;;3.63;2.30;;;7.30;99.90;;;;;;4197488;28;20409;-70
2022/05/27 03:17:10;;;;;;;2.97;2.67;;;7.40;99.90;;;;;;4196631;28;20413;-70
2022/05/27 03:19:47;;;;;;;4.33;3.23;;;7.30;99.90;;;;;;4197172;28;20501;-69
2022/05/27 03:22:12;;;;;;;3.10;2.77;;;7.40;99.90;;;;;;4197566;28;20917;-69
2022/05/27 03:24:21;;;;;;;3.10;2.60;;;7.30;99.90;;;;;;4197476;28;20417;-70
2022/05/27 03:26:42;;;;;;;3.77;2.53;;;7.30;99.90;;;;;;4196609;28;20525;-69
2022/05/27 03:28:59;;;;;;;5.67;3.03;;;7.30;99.90;;;;;;4197436;28;20777;-69
2022/05/27 03:31:31;;;;;;;3.00;2.67;;;7.30;99.90;;;;;;4197160;28;20406;-69
2022/05/27 03:33:38;;;;;;;2.63;2.43;;;7.20;99.90;;;;;;4196830;28;20521;-69
2022/05/27 03:35:50;;;;;;;3.13;2.80;;;7.10;99.90;;;;;;4196703;28;20422;-69
2022/05/27 03:38:07;;;;;;;5.13;2.87;;;7.10;99.90;;;;;;4197116;28;20839;-69
2022/05/27 03:40:20;;;;;;;6.50;2.70;;;7.10;99.90;;;;;;4197059;28;20450;-69
2022/05/27 03:42:24;;;;;;;5.30;2.63;;;7.10;99.90;;;;;;4197040;28;20536;-69
2022/05/27 03:44:27;;;;;;;4.40;3.17;;;7.10;99.90;;;;;;4197116;28;21157;-69
2022/05/27 03:46:35;;;;;;;3.33;3.03;;;7.00;99.90;;;;;;4196733;28;20478;-69
2022/05/27 03:48:36;;;;;;;2.80;2.50;;;7.00;99.90;;;;;;4197038;28;20466;-70
2022/05/27 03:50:36;;;;;;;4.10;2.83;;;7.00;99.90;;;;;;4195549;28;20418;-69
2022/05/27 03:52:40;;;;;;;2.87;2.47;;;7.10;99.90;;;;;;4196750;28;20437;-70
2022/05/27 03:54:40;;;;;;;2.93;2.63;;;7.20;99.90;;;;;;4196780;28;20202;-71
2022/05/27 03:56:42;;;;;;;2.60;2.40;;;7.20;99.90;;;;;;4196135;28;20422;-70
2022/05/27 03:58:42;;;;;;;3.23;2.10;;;7.20;99.90;;;;;;4196662;28;20236;-69
2022/05/27 04:00:43;;;;;;;2.77;2.50;;;7.20;99.90;;;;;;4196657;28;20461;-70
2022/05/27 04:02:44;;;;;;;2.87;2.57;;;7.10;99.90;;;;;;4196749;28;20222;-70
2022/05/27 04:04:45;;;;;;;2.70;2.50;;;7.10;99.90;;;;;;4196632;28;20516;-70
2022/05/27 04:06:47;;;;;;;2.47;2.03;;;7.10;99.90;;;;;;4196088;28;20179;-70
2022/05/27 04:08:47;;;;;;;4.90;2.73;;;7.20;99.90;;;;;;4196560;28;20258;-70
2022/05/27 04:10:48;;;;;;;4.20;2.70;;;7.20;99.90;;;;;;4196240;28;20426;-71
2022/05/27 04:12:48;;;;;;;3.73;2.60;;;7.30;99.90;;;;;;4196747;28;20273;-69
2022/05/27 04:14:50;;;;;;;2.60;2.40;;;7.40;99.90;;;;;;4196217;28;20243;-70
2022/05/27 04:16:50;;;;;;;3.63;2.83;;;7.40;99.90;;;;;;4196024;28;20183;-70
2022/05/27 04:18:51;;;;;;;3.13;2.33;;;7.50;99.90;;;;;;4196168;28;20426;-70
2022/05/27 04:20:52;;;;;;;3.07;2.40;;;7.60;99.90;;;;;;4196213;28;20223;-69
2022/05/27 04:22:56;;;;;;;2.30;2.10;;;7.70;99.90;;;;;;4196898;28;20639;-70
2022/05/27 04:24:58;;;;;;;2.60;2.00;;;7.80;99.90;;;;;;4196291;28;20180;-70
2022/05/27 04:26:59;;;;;;;3.30;2.70;;;7.90;99.90;;;;;;4196049;28;20740;-70
2022/05/27 04:29:00;;;;;;;3.47;2.00;;;7.90;99.90;;;;;;4196695;28;20431;-70
2022/05/27 04:31:01;;;;;;;2.30;2.00;;;8.00;99.90;;;;;;4196202;28;20192;-68
2022/05/27 04:33:02;;;;;;;3.33;2.43;;;8.20;99.90;;;;;;4196221;28;20282;-69
2022/05/27 04:35:03;;;;;;;2.53;2.23;;;8.30;99.90;;;;;;4196937;28;20422;-70
2022/05/27 04:37:04;;;;;;;2.13;1.93;;;8.50;99.90;;;;;;4196303;28;20211;-71
2022/05/27 04:39:05;;;;;;;3.60;2.30;;;8.70;99.90;;;;;;4195526;28;20463;-70
2022/05/27 04:41:05;;;;;;;2.23;2.03;;;9.00;99.90;;;;;;4196810;28;20213;-70
2022/05/27 04:43:06;;;;;;;2.33;2.13;;;9.00;99.90;;;;;;4197243;28;20660;-68
2022/05/27 04:45:07;;;;;;;3.07;2.10;;;9.10;99.90;;;;;;4196321;28;20247;-70
2022/05/27 04:47:09;;;;;;;2.40;2.20;;;9.20;99.80;;;;;;4196230;28;20577;-70
2022/05/27 04:49:50;;;;;;;14.87;2.97;;;9.30;99.90;;;;;;4196551;28;20420;-70
2022/05/27 04:51:30;;;;;;;10.70;3.50;;;9.30;99.10;;;;;;4195321;28;20294;-71
2022/05/27 04:53:30;;;;;;;11.80;2.80;;;9.40;99.90;;;;;;4196411;28;20485;-70
2022/05/27 04:55:34;;;;;;;7.70;1.90;;;9.40;99.50;;;;;;4195817;28;20217;-70
2022/05/27 04:57:38;;;;;;;3.93;1.90;;;9.40;99.90;;;;;;4196730;28;20666;-70
2022/05/27 04:59:40;;;;;;;5.87;2.20;;;9.40;99.90;;;;;;4195434;28;20187;-70
2022/05/27 05:01:40;;;;;;;6.17;2.60;;;9.50;99.90;;;;;;4195015;28;20310;-70
2022/05/27 05:03:41;;;;;;;5.07;2.90;;;9.50;99.90;;;;;;4195377;28;20204;-70
2022/05/27 05:05:42;;;;;;;5.23;3.37;;;9.60;99.90;;;;;;4194862;28;20243;-70
2022/05/27 05:07:45;;;;;;;2.80;2.10;;;9.70;99.90;;;;;;4195477;28;20195;-69
2022/05/27 05:09:45;;;;;;;3.13;2.63;;;9.90;99.40;;;;;;4195407;28;20262;-70
2022/05/27 05:11:46;;;;;;;4.53;2.70;;;9.90;99.90;;;;;;4195319;28;20186;-70
2022/05/27 05:13:47;;;;;;;3.87;2.90;;;10.10;99.90;;;;;;4195328;28;20210;-70
2022/05/27 05:15:47;;;;;;;5.00;2.87;;;10.20;99.40;;;;;;4194744;28;20186;-70
2022/05/27 05:17:48;;;;;;;3.77;2.50;;;10.30;98.40;;;;;;4195083;28;20662;-70
2022/05/27 05:19:53;;;;;;;3.10;2.30;;;10.30;97.50;;;;;;4195078;28;20203;-69
2022/05/27 05:21:53;;;;;;;3.33;2.37;;;10.40;98.10;;;;;;4195222;28;20175;-70
2022/05/27 05:23:54;;;;;;;3.83;2.30;;;10.40;98.40;;;;;;4195147;28;20559;-70
2022/05/27 05:25:55;;;;;;;2.30;2.10;;;10.50;98.00;;;;;;4194469;28;20214;-70
2022/05/27 05:27:56;;;;;;;2.97;2.20;;;10.70;99.30;;;;;;4194961;28;20182;-70
2022/05/27 05:29:56;;;;;;;2.23;2.00;;;10.70;98.50;;;;;;4194890;28;20176;-70
2022/05/27 05:31:57;;;;;;;4.10;2.30;;;10.90;99.00;;;;;;4195014;28;20623;-70
2022/05/27 05:33:59;;;;;;;5.20;2.00;;;11.00;99.50;;;;;;4195357;28;20555;-70
2022/05/27 05:36:00;;;;;;;2.77;2.47;;;11.40;99.40;;;;;;4194527;28;20266;-70
2022/05/27 05:38:00;;;;;;;3.37;2.13;;;11.50;97.70;;;;;;4194965;28;20176;-70
2022/05/27 05:40:02;;;;;;;3.23;1.97;;;11.60;96.90;;;;;;4194932;28;20716;-70
2022/05/27 05:42:05;;;;;;;2.17;1.90;;;11.80;97.50;;;;;;4194920;28;20179;-70
2022/05/27 05:44:07;;;;;;;3.53;2.00;;;12.00;96.80;;;;;;4195042;28;20178;-70
2022/05/27 05:46:08;;;;;;;2.73;2.10;;;12.10;95.90;;;;;;4194354;28;20207;-70
2022/05/27 05:48:09;;;;;;;3.33;2.00;;;12.10;96.50;;;;;;4195017;28;20180;-70
2022/05/27 05:50:11;;;;;;;2.60;1.83;;;12.30;95.80;;;;;;4194951;28;20191;-70
2022/05/27 05:52:12;;;;;;;2.40;2.00;;;12.50;95.70;;;;;;4194850;28;20202;-70
2022/05/27 05:54:12;;;;;;;3.20;2.00;;;12.70;95.20;;;;;;4195118;28;20180;-70
2022/05/27 05:56:13;;;;;;;2.03;1.60;;;13.10;94.70;;;;;;4194338;28;20175;-70
2022/05/27 05:58:14;;;;;;;3.00;2.13;;;13.20;93.90;;;;;;4193590;28;20175;-70
2022/05/27 06:00:19;;;;;;;2.40;2.07;;;13.20;94.10;;;;;;4194946;28;20211;-70
2022/05/27 06:02:19;;;;;;;3.97;2.17;;;13.10;94.80;;;;;;4195139;28;20204;-70
2022/05/27 06:04:20;;;;;;;2.30;1.83;;;13.20;95.20;;;;;;4195132;28;20186;-70
2022/05/27 06:06:21;;;;;;;2.33;1.97;;;13.70;94.30;;;;;;4194161;28;20179;-70
2022/05/27 06:08:21;;;;;;;3.40;1.80;;;13.70;92.40;;;;;;4194705;28;20188;-70
2022/05/27 06:10:22;;;;;;;3.50;1.70;;;13.60;93.00;;;;;;4194741;28;20674;-69
2022/05/27 06:12:24;;;;;;;1.77;1.43;;;13.60;93.20;;;;;;4194302;28;20284;-70
2022/05/27 06:14:24;;;;;;;3.73;1.97;;;13.80;92.30;;;;;;4196258;28;20182;-69
2022/05/27 06:16:24;;;;;;;2.87;1.80;;;14.00;92.00;;;;;;4197351;28;20183;-71
2022/05/27 06:18:25;;;;;;;1.60;1.50;;;14.00;91.50;;;;;;4197957;28;20587;-70
2022/05/27 06:20:26;;;;;;;3.57;1.83;;;14.00;92.20;;;;;;4197879;28;20211;-70
2022/05/27 06:22:27;;;;;;;2.70;1.63;;;14.30;91.80;;;;;;4197972;28;20284;-70
2022/05/27 06:24:27;;;;;;;4.17;1.93;;;14.30;91.10;;;;;;4198274;28;20199;-70
2022/05/27 06:26:28;;;;;;;5.03;1.67;;;14.30;90.40;;;;;;4197380;28;20183;-70
2022/05/27 06:35:27;;;;;;;4.00;2.07;;;14.10;90.80;;;;;;4197239;28;20568;-70
2022/05/27 06:37:28;;;;;;;2.67;1.80;;;14.10;90.20;;;;;;4197835;28;20180;-70
2022/05/27 06:39:30;;;;;;;1.70;1.60;;;14.10;90.10;;;;;;4197773;28;20582;-70
2022/05/27 06:41:30;;;;;;;2.37;1.57;;;14.20;90.70;;;;;;4197678;28;20575;-70
2022/05/27 06:43:33;;;;;;;4.13;1.80;;;14.50;90.20;;;;;;4197685;28;20202;-70
2022/05/27 06:45:34;;;;;;;2.00;1.90;;;14.30;90.10;;;;;;4197250;28;20187;-70
2022/05/27 06:47:35;;;;;;;3.23;1.77;;;14.30;89.30;;;;;;4197718;28;20180;-69
2022/05/27 06:49:37;;;;;;;2.10;1.63;;;14.30;89.50;;;;;;4197579;28;20172;-69
2022/05/27 06:51:39;;;;;;;3.27;1.93;;;14.20;90.40;;;;;;4197661;28;20183;-70
2022/05/27 06:53:40;;;;;;;1.97;1.77;;;14.50;90.10;;;;;;4197861;28;20666;-69
2022/05/27 06:55:41;;;;;;;3.27;1.57;;;14.50;88.50;;;;;;4197215;28;20180;-70
2022/05/27 06:57:42;;;;;;;2.10;1.80;;;14.70;86.80;;;;;;4197811;28;20175;-69
2022/05/27 06:59:43;;;;;;;3.43;2.70;;;14.90;87.40;;;;;;4197902;28;20179;-69
2022/05/27 07:01:44;;;;;;;3.93;1.90;;;15.00;87.70;;;;;;4197403;28;20217;-69
2022/05/27 07:03:44;;;;;;;3.93;3.63;;;15.00;86.00;;;;;;4197744;28;20191;-70
2022/05/27 07:05:44;;;;;;;2.70;1.80;;;14.70;87.80;;;;;;4196678;28;20191;-70
2022/05/27 07:07:45;;;;;;;2.17;1.60;;;14.70;86.80;;;;;;4197354;28;20539;-70
2022/05/27 07:09:46;;;;;;;4.60;2.90;;;14.90;86.00;;;;;;4197325;28;20176;-69
2022/05/27 07:11:48;;;;;;;2.27;1.43;;;14.90;84.00;;;;;;4197214;28;20938;-69
2022/05/27 07:13:49;;;;;;;2.63;2.20;;;15.20;84.20;;;;;;4197246;28;20199;-69
2022/05/27 07:15:49;;;;;;;3.43;2.00;;;15.20;83.20;;;;;;4196784;28;20217;-69
2022/05/27 07:17:50;;;;;;;2.27;1.80;;;15.20;83.50;;;;;;4197237;28;20199;-69
2022/05/27 07:19:50;;;;;;;3.50;2.20;;;15.40;82.20;;;;;;4197067;28;20180;-69
2022/05/27 07:21:55;;;;;;;3.77;2.20;;;15.10;82.90;;;;;;4195702;28;20203;-69
2022/05/27 07:23:56;;;;;;;2.93;1.87;;;15.10;83.60;;;;;;4197359;28;20187;-70
2022/05/27 07:25:57;;;;;;;3.53;2.40;;;15.20;83.00;;;;;;4196149;28;20820;-69
2022/05/27 07:27:58;;;;;;;3.47;3.17;;;15.30;81.60;;;;;;4196903;28;20171;-70
2022/05/27 07:29:58;;;;;;;2.83;1.90;;;14.70;85.80;;;;;;4197074;28;20207;-69
2022/05/27 07:31:59;;;;;;;2.70;2.50;;;14.70;86.60;;;;;;4196954;28;20179;-69
2022/05/27 07:33:59;;;;;;;5.07;1.97;;;14.70;86.00;;;;;;4197066;28;20202;-70
2022/05/27 07:36:00;;;;;;;3.20;2.33;;;15.00;85.40;;;;;;4196639;28;20172;-69
2022/05/27 07:38:00;;;;;;;2.60;2.03;;;15.10;83.00;;;;;;4196929;28;20171;-70
2022/05/27 07:40:01;;;;;;;2.87;2.10;;;14.80;86.40;;;;;;4196746;28;20267;-70
2022/05/27 07:42:02;;;;;;;2.27;2.07;;;15.10;84.10;;;;;;4196809;28;20172;-70
2022/05/27 07:44:03;;;;;;;4.60;1.60;;;15.20;82.30;;;;;;4196872;28;20183;-70
2022/05/27 07:46:04;;;;;;;5.53;2.70;;;15.30;81.00;;;;;;4196388;28;20681;-70
2022/05/27 07:48:05;;;;;;;2.47;2.00;;;15.40;80.00;;;;;;4196762;28;20179;-70
2022/05/27 07:50:07;;;;;;;1.77;1.63;;;15.30;81.00;;;;;;4196799;28;20206;-68
2022/05/27 07:52:08;;;;;;;2.07;1.63;;;15.40;80.10;;;;;;4179201;28;20227;-69
2022/05/27 07:54:11;;;;;;;3.30;1.87;;;15.50;81.40;;;;;;4197643;28;20176;-68
2022/05/27 07:56:13;;;;;;;3.43;2.10;;;15.40;80.50;;;;;;4196616;28;20254;-69
2022/05/27 07:58:14;;;;;;;3.57;1.63;;;15.10;81.80;;;;;;4196831;28;20229;-68
2022/05/27 08:00:18;;;;;;;3.13;2.00;;;15.10;81.10;;;;;;4196630;28;20810;-69
2022/05/27 08:02:19;;;;;;;1.80;1.33;;;15.10;81.00;;;;;;4196516;28;20189;-69
2022/05/27 08:04:19;;;;;;;1.90;1.70;;;15.00;80.70;;;;;;4196665;28;20690;-69
2022/05/27 08:06:20;;;;;;;2.10;1.70;;;15.20;79.50;;;;;;4195502;28;20765;-69
2022/05/27 08:08:20;;;;;;;3.20;2.20;;;15.00;81.30;;;;;;4196469;28;20190;-69
2022/05/27 08:10:28;;;;;;;2.80;2.43;;;14.80;81.10;;;;;;4195586;28;20206;-69
2022/05/27 08:12:28;;;;;;;2.70;2.23;;;14.80;81.90;;;;;;4196401;28;20199;-69
2022/05/27 08:14:29;;;;;;;2.80;1.80;;;14.90;80.90;;;;;;4196051;28;20252;-69
2022/05/27 08:16:33;;;;;;;2.80;2.30;;;14.90;81.70;;;;;;4194888;28;20700;-69
2022/05/27 08:18:33;;;;;;;2.20;1.80;;;15.20;79.50;;;;;;4195940;28;20269;-69
2022/05/27 08:20:36;;;;;;;2.43;2.23;;;15.30;79.20;;;;;;4195868;28;20215;-69
2022/05/27 08:22:36;;;;;;;3.60;1.70;;;15.20;78.60;;;;;;4195450;28;20183;-69
2022/05/27 08:24:37;;;;;;;3.23;1.67;;;15.30;78.90;;;;;;4196415;28;20176;-69
2022/05/27 08:26:38;;;;;;;4.63;2.00;;;15.10;79.80;;;;;;4195475;28;20658;-69
2022/05/27 08:28:38;;;;;;;3.00;1.90;;;15.40;78.80;;;;;;4196075;28;20187;-69
2022/05/27 08:30:40;;;;;;;2.40;1.83;;;15.40;78.10;;;;;;4196220;28;21049;-69
2022/05/27 08:32:40;;;;;;;2.03;1.77;;;15.60;77.30;;;;;;4196096;28;20195;-69
2022/05/27 08:39:19;;;;;;;2.43;2.00;;;15.50;77.60;;;;;;4196184;28;20186;-70
2022/05/27 08:41:29;;;;;;;2.83;1.70;;;15.40;77.70;;;;;;4195821;28;20239;-69
2022/05/27 08:43:42;;;;;;;4.20;1.70;;;15.60;77.40;;;;;;4195898;28;20232;-71
2022/05/27 08:46:27;;;;;;;2.23;1.60;;;15.70;76.20;;;;;;4195313;28;20167;-71
2022/05/27 08:48:33;;;;;;;3.07;1.70;;;15.90;76.10;;;;;;4195854;28;20183;-70
2022/05/27 08:50:44;;;;;;;2.43;2.17;;;16.50;73.50;;;;;;4195930;28;20220;-71
2022/05/27 08:52:49;;;;;;;2.70;1.77;;;16.40;73.50;;;;;;4195747;28;20284;-71
2022/05/27 08:54:58;;;;;;;3.33;1.83;;;16.80;71.60;;;;;;4195711;28;20677;-71
2022/05/27 08:59:40;;;;;;;3.53;1.80;;;16.60;72.80;;;;;;4195942;28;20208;-71
2022/05/27 09:01:42;;;;;;;2.33;1.73;;;17.00;70.90;;;;;;4195618;28;20489;-71
2022/05/27 09:03:54;;;;;;;2.70;2.37;;;17.10;69.10;;;;;;4195796;28;20227;-71
2022/05/27 09:06:04;;;;;;;2.13;1.87;;;16.70;71.00;;;;;;4194759;28;20175;-71
2022/05/27 09:08:19;;;;;;;3.27;1.90;;;16.70;69.50;;;;;;4195504;28;20164;-71
2022/05/27 09:10:43;;;;;;;2.63;2.37;;;16.80;70.00;;;;;;4195631;28;20182;-69
2022/05/27 09:13:15;;;;;;;4.53;3.60;;;16.90;68.30;;;;;;4195771;28;20203;-70
2022/05/27 09:15:32;;;;;;;3.50;1.87;;;16.70;69.30;;;;;;4195672;28;20466;-69
2022/05/27 09:17:53;;;;;;;2.10;1.60;;;16.50;69.60;;;;;;4195341;28;20196;-70
2022/05/27 09:20:21;;;;;;;2.20;1.50;;;16.40;70.20;;;;;;4195667;28;20186;-69
2022/05/27 09:22:43;;;;;;;1.53;1.23;;;16.40;71.10;;;;;;4195489;28;20303;-69
2022/05/27 09:25:01;;;;;;;2.13;1.60;;;17.00;69.80;;;;;;4196245;28;20544;-70
2022/05/27 09:27:37;;;;;;;2.60;1.50;;;16.60;69.70;;;;;;4196081;28;20570;-70
2022/05/27 09:30:02;;;;;;;2.47;1.50;;;17.00;68.30;;;;;;4194678;28;20183;-70
2022/05/27 09:32:16;;;;;;;2.60;2.40;;;16.70;71.10;;;;;;4196163;28;20214;-69
2022/05/27 09:34:17;;;;;;;2.53;1.90;;;17.00;67.90;;;;;;4195870;28;20191;-70
2022/05/27 09:36:28;;;;;;;2.10;1.90;;;16.90;68.60;;;;;;4195316;28;20202;-70
2022/05/27 09:38:32;;;;;;;2.20;1.83;;;16.90;68.70;;;;;;4196229;28;20582;-70
2022/05/27 09:40:42;;;;;;;1.83;1.60;;;17.10;67.60;;;;;;4195632;28;20195;-70
2022/05/27 09:43:04;;;;;;;1.97;1.70;;;16.90;68.60;;;;;;4195726;28;20240;-70
2022/05/27 09:45:05;;;;;;;4.60;3.77;;;17.60;66.10;;;;;;4195578;28;20164;-70
2022/05/27 09:47:06;;;;;;;2.63;1.63;;;17.90;64.30;;;;;;4195735;28;20689;-69
2022/05/27 09:49:07;;;;;;;3.27;2.97;;;18.00;66.60;;;;;;4196014;28;20180;-70
2022/05/27 09:51:09;;;;;;;3.30;3.10;;;18.20;63.30;;;;;;4195798;28;20179;-70
2022/05/27 09:53:28;;;;;;;5.70;3.27;;;18.10;63.00;;;;;;4196133;28;20774;-69
2022/05/27 09:56:02;;;;;;;2.63;2.40;;;17.60;62.60;;;;;;4195233;28;20188;-70
2022/05/27 09:58:05;;;;;;;2.37;1.40;;;17.60;65.40;;;;;;4194523;28;20228;-70
2022/05/27 10:00:11;;;;;;;3.27;1.70;;;18.00;64.40;;;;;;4195658;28;20575;-70
2022/05/27 10:02:26;;;;;;;2.90;1.63;;;17.90;63.00;;;;;;4195093;28;20279;-70
2022/05/27 10:04:26;;;;;;;3.27;2.80;;;18.10;62.40;;;;;;4195585;28;20729;-69
2022/05/27 10:06:29;;;;;;;1.67;1.53;;;18.30;62.30;;;;;;4195180;28;20183;-70
2022/05/27 10:08:40;;;;;;;2.57;1.60;;;17.70;62.40;;;;;;4196026;28;20764;-70
2022/05/27 10:10:42;;;;;;;10.57;9.87;;;17.90;60.90;;;;;;4195689;28;20218;-70
2022/05/27 10:12:43;;;;;;;1.93;1.83;;;17.60;60.60;;;;;;4195607;28;20199;-69
2022/05/27 10:14:51;;;;;;;4.27;1.80;;;17.70;62.50;;;;;;4195584;28;20179;-69
2022/05/27 10:17:11;;;;;;;1.60;1.50;;;17.70;61.30;;;;;;4194970;28;20594;-70
2022/05/27 10:19:21;;;;;;;2.60;1.40;;;18.00;59.70;;;;;;4195456;28;20180;-69
2022/05/27 10:21:22;;;;;;;3.60;2.87;;;18.20;61.20;;;;;;4195559;28;20241;-69
2022/05/27 10:23:29;;;;;;;1.90;1.70;;;18.30;58.10;;;;;;4195705;28;20294;-69
2022/05/27 10:25:41;;;;;;;2.57;2.37;;;18.40;56.40;;;;;;4195361;28;20583;-70
2022/05/27 10:27:52;;;;;;;5.07;4.77;;;18.70;56.40;;;;;;4195489;28;20199;-69
2022/05/27 10:29:58;;;;;;;3.17;1.93;;;18.80;55.60;;;;;;4195630;28;20178;-69
2022/05/27 10:31:59;;;;;;;1.73;1.63;;;18.90;55.70;;;;;;4195704;28;20650;-70
2022/05/27 10:34:01;;;;;;;4.10;3.70;;;19.30;58.00;;;;;;4195863;28;20195;-70
2022/05/27 10:36:02;;;;;;;3.23;2.93;;;20.10;56.60;;;;;;4195383;28;20183;-69
2022/05/27 10:38:25;;;;;;;2.20;2.00;;;19.70;57.30;;;;;;4195833;28;20176;-70
2022/05/27 10:40:54;;;;;;;3.63;2.80;;;20.00;58.70;;;;;;4195635;28;20207;-70
2022/05/27 10:43:11;;;;;;;3.20;1.90;;;20.40;55.70;;;;;;4195312;28;20321;-70
2022/05/27 10:45:17;;;;;;;3.57;3.33;;;21.30;53.90;;;;;;4195389;28;20637;-70
2022/05/27 10:47:42;;;;;;;4.77;4.37;;;21.00;52.00;;;;;;4195110;28;20164;-70
2022/05/27 10:49:43;;;;;;;3.83;2.20;;;21.70;50.40;;;;;;4195093;28;20184;-70
2022/05/27 10:52:08;;;;;;;3.50;2.50;;;21.70;50.30;;;;;;4195283;28;20179;-70
2022/05/27 10:54:33;;;;;;;4.07;3.80;;;21.50;51.20;;;;;;4195399;28;20199;-70
2022/05/27 10:56:42;;;;;;;13.63;12.80;;;21.80;50.50;;;;;;4194997;28;20164;-70
2022/05/27 11:02:07;;;;;;;3.17;2.17;;;21.90;47.10;;;;;;4197955;28;20276;-69
2022/05/27 11:04:20;;;;;;;2.53;2.37;;;21.30;48.40;;;;;;4198546;28;20190;-70
2022/05/27 11:06:55;;;;;;;2.30;2.00;;;21.10;50.80;;;;;;4197652;28;20666;-70
2022/05/27 11:09:19;;;;;;;2.60;1.77;;;21.80;46.50;;;;;;4198029;28;20196;-70
2022/05/27 11:11:52;;;;;;;4.73;3.97;;;21.30;48.90;;;;;;4198238;28;20172;-70
2022/05/27 11:16:54;;;;;;;2.67;2.17;;;22.10;46.10;;;;;;4197268;28;20167;-70
2022/05/27 11:19:33;;;;;;;2.67;1.80;;;22.50;45.40;;;;;;4197384;28;20223;-70
2022/05/27 11:22:10;;;;;;;3.80;3.50;;;23.00;43.70;;;;;;4190702;28;20226;-70
2022/05/27 11:24:40;;;;;;;3.57;2.70;;;22.70;44.10;;;;;;4197461;28;20792;-69
2022/05/27 11:26:50;;;;;;;2.60;2.40;;;22.30;45.30;;;;;;4196562;28;20180;-70